Tyro, Kansas
Current Conditions -  °F | °C
As of 11:35 AM on Thursday 23 Oct 2014 (Local Time) from KIDP Reporting Station
Broken Clouds Broken Clouds  
Wind Chill: 63°   Ceiling: 1200
Heat Index: 63°   Visibility: 10mi
Dew Point: 57°   Wind: 13mph
Humidity: 82%   Direction: 190°S
Pressure: 30.14"   Gusts: NA
Location:  37.04°N, 95.82°W
Report Text: KIDP 231635Z AUTO 19011KT 10SM BKN012 17/14 A3014 RMK AO2
Loading
Personal Weather Stations






























Interactive Weather Map
Tropical Storm Tracking
New forecast layout! Learn more

10-Day Weather Forecast

Advertisements
Track Severe Weather on mobile